Airfield :
LOGIN :

Register | Disclaimer

   EN    FR    IT 

 










Legend :    VFR   Marginal VFR   IFR   Intensive IFR   Very Intensive IFR
Visi :
Ceiling :
>= 8 km
>= 3000ft
5 to 8 km
1000 to 3000 ft
1500m to 5 km
500 to 1000 ft
800 to 1500m
200 to 500 ft
< 800m
< 200 ft
Symbols :   Thunderstorms  Fog  Heavy snow  Heavy precipitations  Wind > 20 kt
SIGMETs :     Misc.  Thunderstorms  Icing  Turbulence  Mountain Waves  Volcanic Ashes






- Airport Elevation : 52 ft
- IATA code : RNN


EKRN - Bornholm Ronne

CURRENT METAR :
  • 180550Z AUTO 09015KT 5000 FEW006/// 09/08 Q1008

EXPIRED METARs :
  • 180520Z AUTO 09014KT 5000 SCT160/// 09/08 Q1008
  • 180450Z AUTO 09015KT 5000 FEW005/// 09/08 Q1008
  • 180420Z AUTO 09014KT 4800 BR SCT005/// 09/08 Q1008
  • 180350Z AUTO 09014KT 4900 BR BKN005/// 09/08 Q1009
  • 180320Z AUTO 09015KT 5000 FEW006/// FEW220/// 09/08 Q1009

TAF TAF EKRN
Valid from the 18 at 06:00 until the 18 at 15:00 UTC


180528Z 1806/1815 10015KT 8000 SCT008
TEMPO 1806/1807 4000 BR BKN008



MET'MAP, your aeronautical weather chart ! - Copyright ORBIFLY December 2007 - Disclaimer

ORBIFLY MET'MAP TEAM :

Programming & Development : Alexandra Zaïnal
Concept & Development : Baudouin d'Aumeries
Co-Development & Prog : Marc-Olivier Méhu
Technical & hardware support : Manuel Goepfert

Contact : metmap@orbifly.com




SOURCES & CREDITS :

   NOAA